sensor_id;sensor_type;location;lat;lon;timestamp;temperature;humidity
3630;DHT22;1831;53.626;10.012;2022-08-18T00:00:04;27.90;63.40
3630;DHT22;1831;53.626;10.012;2022-08-18T00:02:32;27.80;63.60
3630;DHT22;1831;53.626;10.012;2022-08-18T00:04:59;27.80;63.60
3630;DHT22;1831;53.626;10.012;2022-08-18T00:07:29;27.80;63.70
3630;DHT22;1831;53.626;10.012;2022-08-18T00:09:57;27.70;63.70
3630;DHT22;1831;53.626;10.012;2022-08-18T00:12:27;27.70;63.80
3630;DHT22;1831;53.626;10.012;2022-08-18T00:14:56;27.70;63.80
3630;DHT22;1831;53.626;10.012;2022-08-18T00:17:27;27.70;64.20
3630;DHT22;1831;53.626;10.012;2022-08-18T00:19:55;27.70;64.00
3630;DHT22;1831;53.626;10.012;2022-08-18T00:22:22;27.70;64.00
3630;DHT22;1831;53.626;10.012;2022-08-18T00:24:50;27.70;64.00
3630;DHT22;1831;53.626;10.012;2022-08-18T00:27:19;27.70;64.10
3630;DHT22;1831;53.626;10.012;2022-08-18T00:29:46;27.70;64.00
3630;DHT22;1831;53.626;10.012;2022-08-18T00:32:17;27.60;64.10
3630;DHT22;1831;53.626;10.012;2022-08-18T00:34:45;27.60;64.20
3630;DHT22;1831;53.626;10.012;2022-08-18T00:37:12;27.60;63.90
3630;DHT22;1831;53.626;10.012;2022-08-18T00:39:39;27.60;63.90
3630;DHT22;1831;53.626;10.012;2022-08-18T00:42:16;27.60;64.00
3630;DHT22;1831;53.626;10.012;2022-08-18T00:44:43;27.60;64.10
3630;DHT22;1831;53.626;10.012;2022-08-18T00:47:10;27.60;64.10
3630;DHT22;1831;53.626;10.012;2022-08-18T00:49:39;27.60;64.20
3630;DHT22;1831;53.626;10.012;2022-08-18T00:52:08;27.60;64.20
3630;DHT22;1831;53.626;10.012;2022-08-18T00:54:39;27.60;64.10
3630;DHT22;1831;53.626;10.012;2022-08-18T00:57:08;27.60;64.00
3630;DHT22;1831;53.626;10.012;2022-08-18T00:59:39;27.70;63.90
3630;DHT22;1831;53.626;10.012;2022-08-18T01:02:15;27.60;63.80
3630;DHT22;1831;53.626;10.012;2022-08-18T01:04:46;27.70;63.90
3630;DHT22;1831;53.626;10.012;2022-08-18T01:07:20;27.70;64.10
3630;DHT22;1831;53.626;10.012;2022-08-18T01:09:48;27.60;64.10
3630;DHT22;1831;53.626;10.012;2022-08-18T01:12:15;27.60;64.10
3630;DHT22;1831;53.626;10.012;2022-08-18T01:14:42;27.60;64.30
3630;DHT22;1831;53.626;10.012;2022-08-18T01:17:09;27.60;64.30
3630;DHT22;1831;53.626;10.012;2022-08-18T01:19:54;27.60;64.40
3630;DHT22;1831;53.626;10.012;2022-08-18T01:22:50;27.60;64.40
3630;DHT22;1831;53.626;10.012;2022-08-18T01:25:21;27.50;64.60
3630;DHT22;1831;53.626;10.012;2022-08-18T01:28:06;27.50;64.70
3630;DHT22;1831;53.626;10.012;2022-08-18T01:30:44;27.40;64.80
3630;DHT22;1831;53.626;10.012;2022-08-18T01:33:13;27.40;64.90
3630;DHT22;1831;53.626;10.012;2022-08-18T01:35:42;27.40;64.90
3630;DHT22;1831;53.626;10.012;2022-08-18T01:38:17;27.40;65.00
3630;DHT22;1831;53.626;10.012;2022-08-18T01:40:44;27.40;65.10
3630;DHT22;1831;53.626;10.012;2022-08-18T01:43:12;27.40;65.10
3630;DHT22;1831;53.626;10.012;2022-08-18T01:45:39;27.40;65.10
3630;DHT22;1831;53.626;10.012;2022-08-18T01:48:06;27.30;65.10
3630;DHT22;1831;53.626;10.012;2022-08-18T01:50:35;27.30;65.20
3630;DHT22;1831;53.626;10.012;2022-08-18T01:53:04;27.30;65.30
3630;DHT22;1831;53.626;10.012;2022-08-18T01:55:33;27.30;65.30
3630;DHT22;1831;53.626;10.012;2022-08-18T01:58:01;27.20;65.30
3630;DHT22;1831;53.626;10.012;2022-08-18T02:00:28;27.20;65.30
3630;DHT22;1831;53.626;10.012;2022-08-18T02:02:57;27.20;65.40
3630;DHT22;1831;53.626;10.012;2022-08-18T02:05:29;27.20;65.50
3630;DHT22;1831;53.626;10.012;2022-08-18T02:07:58;27.10;65.50
3630;DHT22;1831;53.626;10.012;2022-08-18T02:10:25;27.10;66.30
3630;DHT22;1831;53.626;10.012;2022-08-18T02:12:54;27.10;65.60
3630;DHT22;1831;53.626;10.012;2022-08-18T02:15:21;27.10;65.60
3630;DHT22;1831;53.626;10.012;2022-08-18T02:17:48;27.10;65.60
3630;DHT22;1831;53.626;10.012;2022-08-18T02:20:17;27.10;65.60
3630;DHT22;1831;53.626;10.012;2022-08-18T02:22:46;27.00;65.80
3630;DHT22;1831;53.626;10.012;2022-08-18T02:25:14;27.00;66.00
3630;DHT22;1831;53.626;10.012;2022-08-18T02:27:41;26.90;66.10
3630;DHT22;1831;53.626;10.012;2022-08-18T02:30:13;26.90;66.10
3630;DHT22;1831;53.626;10.012;2022-08-18T02:32:40;26.90;66.10
3630;DHT22;1831;53.626;10.012;2022-08-18T02:35:08;26.90;66.10
3630;DHT22;1831;53.626;10.012;2022-08-18T02:37:38;27.00;66.00
3630;DHT22;1831;53.626;10.012;2022-08-18T02:40:06;27.00;65.90
3630;DHT22;1831;53.626;10.012;2022-08-18T02:42:34;26.90;66.40
3630;DHT22;1831;53.626;10.012;2022-08-18T02:45:03;27.00;65.90
3630;DHT22;1831;53.626;10.012;2022-08-18T02:47:32;27.00;65.90
3630;DHT22;1831;53.626;10.012;2022-08-18T02:49:59;27.00;65.90
3630;DHT22;1831;53.626;10.012;2022-08-18T02:52:25;27.00;66.00
3630;DHT22;1831;53.626;10.012;2022-08-18T02:54:57;27.00;66.00
3630;DHT22;1831;53.626;10.012;2022-08-18T02:57:25;27.00;65.90
3630;DHT22;1831;53.626;10.012;2022-08-18T02:59:54;26.90;66.00
3630;DHT22;1831;53.626;10.012;2022-08-18T03:02:21;27.00;66.70
3630;DHT22;1831;53.626;10.012;2022-08-18T03:04:49;27.00;65.90
3630;DHT22;1831;53.626;10.012;2022-08-18T03:07:17;26.90;65.80
3630;DHT22;1831;53.626;10.012;2022-08-18T03:09:44;27.00;65.90
3630;DHT22;1831;53.626;10.012;2022-08-18T03:12:10;27.00;65.90
3630;DHT22;1831;53.626;10.012;2022-08-18T03:14:37;27.00;65.80
3630;DHT22;1831;53.626;10.012;2022-08-18T03:17:07;27.00;65.80
3630;DHT22;1831;53.626;10.012;2022-08-18T03:19:34;27.00;65.80
3630;DHT22;1831;53.626;10.012;2022-08-18T03:22:03;27.00;65.70
3630;DHT22;1831;53.626;10.012;2022-08-18T03:24:31;27.00;65.70
3630;DHT22;1831;53.626;10.012;2022-08-18T03:26:59;26.90;65.60
3630;DHT22;1831;53.626;10.012;2022-08-18T03:29:26;26.90;66.30
3630;DHT22;1831;53.626;10.012;2022-08-18T03:31:53;26.90;65.60
3630;DHT22;1831;53.626;10.012;2022-08-18T03:34:20;26.90;65.60
3630;DHT22;1831;53.626;10.012;2022-08-18T03:36:48;26.90;65.70
3630;DHT22;1831;53.626;10.012;2022-08-18T03:39:18;26.90;65.60
3630;DHT22;1831;53.626;10.012;2022-08-18T03:41:49;26.90;65.60
3630;DHT22;1831;53.626;10.012;2022-08-18T03:44:17;26.90;65.70
3630;DHT22;1831;53.626;10.012;2022-08-18T03:46:44;26.80;65.50
3630;DHT22;1831;53.626;10.012;2022-08-18T03:49:12;26.90;65.60
3630;DHT22;1831;53.626;10.012;2022-08-18T03:51:42;26.80;65.60
3630;DHT22;1831;53.626;10.012;2022-08-18T03:54:10;26.80;66.30
3630;DHT22;1831;53.626;10.012;2022-08-18T03:56:40;26.80;65.50
3630;DHT22;1831;53.626;10.012;2022-08-18T03:59:12;26.80;65.60
3630;DHT22;1831;53.626;10.012;2022-08-18T04:01:42;26.70;65.70
3630;DHT22;1831;53.626;10.012;2022-08-18T04:04:11;26.70;65.80
3630;DHT22;1831;53.626;10.012;2022-08-18T04:06:42;26.70;65.80
3630;DHT22;1831;53.626;10.012;2022-08-18T04:09:13;26.70;65.80
3630;DHT22;1831;53.626;10.012;2022-08-18T04:11:42;26.70;66.70
3630;DHT22;1831;53.626;10.012;2022-08-18T04:14:11;26.70;66.00
3630;DHT22;1831;53.626;10.012;2022-08-18T04:16:39;26.70;66.00
3630;DHT22;1831;53.626;10.012;2022-08-18T04:19:06;26.70;66.00
3630;DHT22;1831;53.626;10.012;2022-08-18T04:21:36;26.70;66.10
3630;DHT22;1831;53.626;10.012;2022-08-18T04:24:04;26.70;66.00
3630;DHT22;1831;53.626;10.012;2022-08-18T04:26:33;26.70;66.10
3630;DHT22;1831;53.626;10.012;2022-08-18T04:29:03;26.70;66.30
3630;DHT22;1831;53.626;10.012;2022-08-18T04:31:30;26.70;66.30
3630;DHT22;1831;53.626;10.012;2022-08-18T04:33:58;26.70;66.40
3630;DHT22;1831;53.626;10.012;2022-08-18T04:36:27;26.70;66.50
3630;DHT22;1831;53.626;10.012;2022-08-18T04:38:54;26.70;66.30
3630;DHT22;1831;53.626;10.012;2022-08-18T04:41:22;26.70;66.40
3630;DHT22;1831;53.626;10.012;2022-08-18T04:43:52;26.70;66.40
3630;DHT22;1831;53.626;10.012;2022-08-18T04:46:21;26.80;66.40
3630;DHT22;1831;53.626;10.012;2022-08-18T04:48:48;26.80;66.40
3630;DHT22;1831;53.626;10.012;2022-08-18T04:51:18;26.80;66.30
3630;DHT22;1831;53.626;10.012;2022-08-18T04:53:47;26.80;66.50
3630;DHT22;1831;53.626;10.012;2022-08-18T04:56:14;26.80;66.60
3630;DHT22;1831;53.626;10.012;2022-08-18T04:58:46;26.90;66.40
3630;DHT22;1831;53.626;10.012;2022-08-18T05:01:15;27.00;66.30
3630;DHT22;1831;53.626;10.012;2022-08-18T05:03:44;27.10;66.00
3630;DHT22;1831;53.626;10.012;2022-08-18T05:06:13;27.10;65.90
3630;DHT22;1831;53.626;10.012;2022-08-18T05:08:40;27.20;65.80
3630;DHT22;1831;53.626;10.012;2022-08-18T05:11:07;27.20;65.90
3630;DHT22;1831;53.626;10.012;2022-08-18T05:13:34;27.20;65.80
3630;DHT22;1831;53.626;10.012;2022-08-18T05:16:01;27.20;65.60
3630;DHT22;1831;53.626;10.012;2022-08-18T05:18:29;27.30;65.70
3630;DHT22;1831;53.626;10.012;2022-08-18T05:20:58;27.30;65.80
3630;DHT22;1831;53.626;10.012;2022-08-18T05:23:26;27.20;65.90
3630;DHT22;1831;53.626;10.012;2022-08-18T05:25:56;27.20;66.00
3630;DHT22;1831;53.626;10.012;2022-08-18T05:28:23;27.30;65.90
3630;DHT22;1831;53.626;10.012;2022-08-18T05:30:50;27.40;65.80
3630;DHT22;1831;53.626;10.012;2022-08-18T05:33:17;27.40;65.80
3630;DHT22;1831;53.626;10.012;2022-08-18T05:35:47;27.50;65.70
3630;DHT22;1831;53.626;10.012;2022-08-18T05:38:25;27.50;65.90
3630;DHT22;1831;53.626;10.012;2022-08-18T05:41:02;27.40;66.10
3630;DHT22;1831;53.626;10.012;2022-08-18T05:43:31;27.40;66.00
3630;DHT22;1831;53.626;10.012;2022-08-18T05:45:59;27.40;66.10
3630;DHT22;1831;53.626;10.012;2022-08-18T05:48:27;27.40;65.90
3630;DHT22;1831;53.626;10.012;2022-08-18T05:50:55;27.40;65.80
3630;DHT22;1831;53.626;10.012;2022-08-18T05:53:28;27.40;65.70
3630;DHT22;1831;53.626;10.012;2022-08-18T05:56:10;27.40;65.80
3630;DHT22;1831;53.626;10.012;2022-08-18T05:58:56;27.40;65.60
3630;DHT22;1831;53.626;10.012;2022-08-18T06:01:27;27.40;65.50
3630;DHT22;1831;53.626;10.012;2022-08-18T06:03:59;27.40;65.50
3630;DHT22;1831;53.626;10.012;2022-08-18T06:06:28;27.40;65.70
3630;DHT22;1831;53.626;10.012;2022-08-18T06:09:12;27.40;65.80
3630;DHT22;1831;53.626;10.012;2022-08-18T06:11:43;27.40;65.80
3630;DHT22;1831;53.626;10.012;2022-08-18T06:14:10;27.40;65.70
3630;DHT22;1831;53.626;10.012;2022-08-18T06:16:50;27.40;65.70
3630;DHT22;1831;53.626;10.012;2022-08-18T06:19:28;27.40;65.60
3630;DHT22;1831;53.626;10.012;2022-08-18T06:22:02;27.50;65.50
3630;DHT22;1831;53.626;10.012;2022-08-18T06:24:37;27.50;65.30
3630;DHT22;1831;53.626;10.012;2022-08-18T06:27:15;27.50;65.20
3630;DHT22;1831;53.626;10.012;2022-08-18T06:29:55;27.50;65.30
3630;DHT22;1831;53.626;10.012;2022-08-18T06:32:44;27.60;65.50
3630;DHT22;1831;53.626;10.012;2022-08-18T06:35:21;27.60;65.50
3630;DHT22;1831;53.626;10.012;2022-08-18T06:37:59;27.50;65.70
3630;DHT22;1831;53.626;10.012;2022-08-18T06:40:48;27.60;65.80
3630;DHT22;1831;53.626;10.012;2022-08-18T06:43:16;27.50;66.10
3630;DHT22;1831;53.626;10.012;2022-08-18T06:45:45;27.40;66.20
3630;DHT22;1831;53.626;10.012;2022-08-18T06:48:22;27.40;66.70
3630;DHT22;1831;53.626;10.012;2022-08-18T06:50:56;27.40;66.90
3630;DHT22;1831;53.626;10.012;2022-08-18T06:53:49;27.40;67.00
3630;DHT22;1831;53.626;10.012;2022-08-18T06:56:25;27.40;67.30
3630;DHT22;1831;53.626;10.012;2022-08-18T06:58:53;27.20;67.90
3630;DHT22;1831;53.626;10.012;2022-08-18T07:01:21;27.10;67.90
3630;DHT22;1831;53.626;10.012;2022-08-18T07:03:53;27.10;68.00
3630;DHT22;1831;53.626;10.012;2022-08-18T07:06:28;27.20;67.80
3630;DHT22;1831;53.626;10.012;2022-08-18T07:09:20;27.10;67.90
3630;DHT22;1831;53.626;10.012;2022-08-18T07:12:06;27.00;68.40
3630;DHT22;1831;53.626;10.012;2022-08-18T07:14:42;27.00;68.60
3630;DHT22;1831;53.626;10.012;2022-08-18T07:17:11;27.20;68.40
3630;DHT22;1831;53.626;10.012;2022-08-18T07:19:38;27.30;68.20
3630;DHT22;1831;53.626;10.012;2022-08-18T07:22:08;27.20;68.30
3630;DHT22;1831;53.626;10.012;2022-08-18T07:24:40;27.20;68.30
3630;DHT22;1831;53.626;10.012;2022-08-18T07:27:11;27.10;68.50
3630;DHT22;1831;53.626;10.012;2022-08-18T07:29:57;27.20;68.40
3630;DHT22;1831;53.626;10.012;2022-08-18T07:32:28;27.20;68.20
3630;DHT22;1831;53.626;10.012;2022-08-18T07:34:58;27.20;68.70
3630;DHT22;1831;53.626;10.012;2022-08-18T07:37:31;27.20;68.40
3630;DHT22;1831;53.626;10.012;2022-08-18T07:40:04;27.00;68.50
3630;DHT22;1831;53.626;10.012;2022-08-18T07:42:38;26.80;69.30
3630;DHT22;1831;53.626;10.012;2022-08-18T07:45:13;26.90;69.10
3630;DHT22;1831;53.626;10.012;2022-08-18T07:47:48;26.80;68.80
3630;DHT22;1831;53.626;10.012;2022-08-18T07:50:15;26.70;69.40
3630;DHT22;1831;53.626;10.012;2022-08-18T07:52:47;26.70;69.10
3630;DHT22;1831;53.626;10.012;2022-08-18T07:55:27;26.90;68.90
3630;DHT22;1831;53.626;10.012;2022-08-18T07:58:02;27.00;68.60
3630;DHT22;1831;53.626;10.012;2022-08-18T08:00:35;26.80;69.00
3630;DHT22;1831;53.626;10.012;2022-08-18T08:03:10;26.90;69.30
3630;DHT22;1831;53.626;10.012;2022-08-18T08:05:48;27.00;69.10
3630;DHT22;1831;53.626;10.012;2022-08-18T08:08:22;27.10;68.60
3630;DHT22;1831;53.626;10.012;2022-08-18T08:11:02;27.20;68.60
3630;DHT22;1831;53.626;10.012;2022-08-18T08:13:42;27.10;68.50
3630;DHT22;1831;53.626;10.012;2022-08-18T08:16:21;27.00;68.70
3630;DHT22;1831;53.626;10.012;2022-08-18T08:18:58;26.80;69.10
3630;DHT22;1831;53.626;10.012;2022-08-18T08:21:32;26.70;69.50
3630;DHT22;1831;53.626;10.012;2022-08-18T08:24:10;26.70;69.80
3630;DHT22;1831;53.626;10.012;2022-08-18T08:26:51;26.70;70.40
3630;DHT22;1831;53.626;10.012;2022-08-18T08:29:29;26.80;69.20
3630;DHT22;1831;53.626;10.012;2022-08-18T08:32:01;26.90;69.20
3630;DHT22;1831;53.626;10.012;2022-08-18T08:34:35;27.00;69.00
3630;DHT22;1831;53.626;10.012;2022-08-18T08:37:04;27.00;69.00
3630;DHT22;1831;53.626;10.012;2022-08-18T08:39:36;27.00;68.70
3630;DHT22;1831;53.626;10.012;2022-08-18T08:42:07;27.10;68.60
3630;DHT22;1831;53.626;10.012;2022-08-18T08:44:40;27.20;68.80
3630;DHT22;1831;53.626;10.012;2022-08-18T08:47:14;27.30;68.60
3630;DHT22;1831;53.626;10.012;2022-08-18T08:49:46;27.30;68.30
3630;DHT22;1831;53.626;10.012;2022-08-18T08:52:18;27.30;68.20
3630;DHT22;1831;53.626;10.012;2022-08-18T08:54:49;27.30;68.50
3630;DHT22;1831;53.626;10.012;2022-08-18T08:57:18;27.40;67.70
3630;DHT22;1831;53.626;10.012;2022-08-18T08:59:49;27.30;67.10
3630;DHT22;1831;53.626;10.012;2022-08-18T09:02:36;27.20;67.30
3630;DHT22;1831;53.626;10.012;2022-08-18T09:05:09;27.20;67.50
3630;DHT22;1831;53.626;10.012;2022-08-18T09:07:57;27.30;67.30
3630;DHT22;1831;53.626;10.012;2022-08-18T09:14:01;27.50;67.10
3630;DHT22;1831;53.626;10.012;2022-08-18T09:16:51;27.60;66.90
3630;DHT22;1831;53.626;10.012;2022-08-18T09:19:45;27.70;66.70
3630;DHT22;1831;53.626;10.012;2022-08-18T09:22:23;27.70;66.50
3630;DHT22;1831;53.626;10.012;2022-08-18T09:24:55;27.60;66.20
3630;DHT22;1831;53.626;10.012;2022-08-18T09:27:33;27.80;66.60
3630;DHT22;1831;53.626;10.012;2022-08-18T09:30:05;27.80;66.00
3630;DHT22;1831;53.626;10.012;2022-08-18T09:32:56;27.80;65.70
3630;DHT22;1831;53.626;10.012;2022-08-18T09:38:31;28.00;65.50
3630;DHT22;1831;53.626;10.012;2022-08-18T09:41:22;28.10;65.20
3630;DHT22;1831;53.626;10.012;2022-08-18T09:44:01;28.00;65.40
3630;DHT22;1831;53.626;10.012;2022-08-18T09:46:57;28.00;66.40
3630;DHT22;1831;53.626;10.012;2022-08-18T09:49:42;28.10;65.30
3630;DHT22;1831;53.626;10.012;2022-08-18T09:55:53;28.10;65.80
3630;DHT22;1831;53.626;10.012;2022-08-18T09:58:54;28.10;65.50
3630;DHT22;1831;53.626;10.012;2022-08-18T10:01:34;28.20;65.40
3630;DHT22;1831;53.626;10.012;2022-08-18T10:04:29;28.30;65.10
3630;DHT22;1831;53.626;10.012;2022-08-18T10:07:19;28.30;65.30
3630;DHT22;1831;53.626;10.012;2022-08-18T10:10:11;28.30;64.70
3630;DHT22;1831;53.626;10.012;2022-08-18T10:13:12;28.40;64.30
3630;DHT22;1831;53.626;10.012;2022-08-18T10:16:01;28.50;64.30
3630;DHT22;1831;53.626;10.012;2022-08-18T10:18:41;28.50;64.00
3630;DHT22;1831;53.626;10.012;2022-08-18T10:21:13;28.50;64.00
3630;DHT22;1831;53.626;10.012;2022-08-18T10:23:50;28.60;64.10
3630;DHT22;1831;53.626;10.012;2022-08-18T10:29:54;28.50;64.40
3630;DHT22;1831;53.626;10.012;2022-08-18T10:32:38;28.50;64.10
3630;DHT22;1831;53.626;10.012;2022-08-18T10:38:27;28.50;64.80
3630;DHT22;1831;53.626;10.012;2022-08-18T10:40:59;28.60;64.50
3630;DHT22;1831;53.626;10.012;2022-08-18T10:43:35;28.70;64.20
3630;DHT22;1831;53.626;10.012;2022-08-18T10:46:03;28.70;64.00
3630;DHT22;1831;53.626;10.012;2022-08-18T10:48:32;28.80;64.50
3630;DHT22;1831;53.626;10.012;2022-08-18T10:51:05;28.80;63.70
3630;DHT22;1831;53.626;10.012;2022-08-18T10:53:37;28.90;64.20
3630;DHT22;1831;53.626;10.012;2022-08-18T10:56:16;28.80;64.00
3630;DHT22;1831;53.626;10.012;2022-08-18T10:59:02;28.80;64.20
3630;DHT22;1831;53.626;10.012;2022-08-18T11:01:50;28.80;63.80
3630;DHT22;1831;53.626;10.012;2022-08-18T11:04:29;28.80;64.00
3630;DHT22;1831;53.626;10.012;2022-08-18T11:07:09;28.80;63.80
3630;DHT22;1831;53.626;10.012;2022-08-18T11:09:38;28.80;64.70
3630;DHT22;1831;53.626;10.012;2022-08-18T11:12:10;28.70;64.10
3630;DHT22;1831;53.626;10.012;2022-08-18T11:14:55;28.80;63.60
3630;DHT22;1831;53.626;10.012;2022-08-18T11:17:35;28.80;63.60
3630;DHT22;1831;53.626;10.012;2022-08-18T11:20:06;28.90;63.50
3630;DHT22;1831;53.626;10.012;2022-08-18T11:22:35;29.00;63.10
3630;DHT22;1831;53.626;10.012;2022-08-18T11:25:15;29.10;63.30
3630;DHT22;1831;53.626;10.012;2022-08-18T11:27:46;29.20;62.80
3630;DHT22;1831;53.626;10.012;2022-08-18T11:30:13;29.30;62.50
3630;DHT22;1831;53.626;10.012;2022-08-18T11:32:41;29.20;61.90
3630;DHT22;1831;53.626;10.012;2022-08-18T11:35:12;29.20;62.10
3630;DHT22;1831;53.626;10.012;2022-08-18T11:37:44;29.20;62.40
3630;DHT22;1831;53.626;10.012;2022-08-18T11:40:27;29.40;62.30
3630;DHT22;1831;53.626;10.012;2022-08-18T11:43:00;29.40;62.10
3630;DHT22;1831;53.626;10.012;2022-08-18T11:45:33;29.40;61.90
3630;DHT22;1831;53.626;10.012;2022-08-18T11:48:14;29.40;61.80
3630;DHT22;1831;53.626;10.012;2022-08-18T11:50:48;29.50;62.40
3630;DHT22;1831;53.626;10.012;2022-08-18T11:53:23;29.40;61.90
3630;DHT22;1831;53.626;10.012;2022-08-18T11:56:14;29.50;62.20
3630;DHT22;1831;53.626;10.012;2022-08-18T11:58:45;29.50;62.00
3630;DHT22;1831;53.626;10.012;2022-08-18T12:01:31;29.50;61.00
3630;DHT22;1831;53.626;10.012;2022-08-18T12:04:08;29.40;61.00
3630;DHT22;1831;53.626;10.012;2022-08-18T12:06:36;29.30;60.70
3630;DHT22;1831;53.626;10.012;2022-08-18T12:09:07;29.20;60.90
3630;DHT22;1831;53.626;10.012;2022-08-18T12:11:49;29.30;61.00
3630;DHT22;1831;53.626;10.012;2022-08-18T12:14:20;29.20;60.70
3630;DHT22;1831;53.626;10.012;2022-08-18T12:16:48;29.30;60.50
3630;DHT22;1831;53.626;10.012;2022-08-18T12:19:15;29.30;60.50
3630;DHT22;1831;53.626;10.012;2022-08-18T12:21:45;29.40;60.40
3630;DHT22;1831;53.626;10.012;2022-08-18T12:24:19;29.50;60.10
3630;DHT22;1831;53.626;10.012;2022-08-18T12:26:46;29.50;59.70
3630;DHT22;1831;53.626;10.012;2022-08-18T12:29:14;29.60;59.70
3630;DHT22;1831;53.626;10.012;2022-08-18T12:31:44;29.70;60.20
3630;DHT22;1831;53.626;10.012;2022-08-18T12:34:11;29.70;59.50
3630;DHT22;1831;53.626;10.012;2022-08-18T12:36:38;29.90;59.70
3630;DHT22;1831;53.626;10.012;2022-08-18T12:39:05;30.00;58.70
3630;DHT22;1831;53.626;10.012;2022-08-18T12:41:32;29.90;57.90
3630;DHT22;1831;53.626;10.012;2022-08-18T12:43:59;30.00;58.00
3630;DHT22;1831;53.626;10.012;2022-08-18T12:46:26;30.10;57.80
3630;DHT22;1831;53.626;10.012;2022-08-18T12:48:54;30.00;57.90
3630;DHT22;1831;53.626;10.012;2022-08-18T12:51:21;30.10;58.40
3630;DHT22;1831;53.626;10.012;2022-08-18T12:53:48;30.20;58.20
3630;DHT22;1831;53.626;10.012;2022-08-18T12:56:19;30.30;58.00
3630;DHT22;1831;53.626;10.012;2022-08-18T12:58:48;30.20;57.60
3630;DHT22;1831;53.626;10.012;2022-08-18T13:01:15;30.20;57.60
3630;DHT22;1831;53.626;10.012;2022-08-18T13:03:42;30.20;57.20
3630;DHT22;1831;53.626;10.012;2022-08-18T13:06:13;30.40;57.00
3630;DHT22;1831;53.626;10.012;2022-08-18T13:08:40;30.50;56.80
3630;DHT22;1831;53.626;10.012;2022-08-18T13:11:07;30.40;56.50
3630;DHT22;1831;53.626;10.012;2022-08-18T13:13:35;30.60;56.70
3630;DHT22;1831;53.626;10.012;2022-08-18T13:16:03;30.60;56.00
3630;DHT22;1831;53.626;10.012;2022-08-18T13:18:30;30.70;56.60
3630;DHT22;1831;53.626;10.012;2022-08-18T13:20:57;30.90;56.50
3630;DHT22;1831;53.626;10.012;2022-08-18T13:23:26;31.00;56.50
3630;DHT22;1831;53.626;10.012;2022-08-18T13:25:53;31.10;56.10
3630;DHT22;1831;53.626;10.012;2022-08-18T13:28:20;31.30;55.90
3630;DHT22;1831;53.626;10.012;2022-08-18T13:30:47;31.40;55.70
3630;DHT22;1831;53.626;10.012;2022-08-18T13:33:15;31.30;54.80
3630;DHT22;1831;53.626;10.012;2022-08-18T13:35:43;31.40;54.70
3630;DHT22;1831;53.626;10.012;2022-08-18T13:38:10;31.60;55.20
3630;DHT22;1831;53.626;10.012;2022-08-18T13:40:39;31.70;54.20
3630;DHT22;1831;53.626;10.012;2022-08-18T13:43:07;31.80;54.00
3630;DHT22;1831;53.626;10.012;2022-08-18T13:45:35;32.10;55.20
3630;DHT22;1831;53.626;10.012;2022-08-18T13:48:02;32.10;53.80
3630;DHT22;1831;53.626;10.012;2022-08-18T13:50:30;32.10;53.50
3630;DHT22;1831;53.626;10.012;2022-08-18T13:52:57;32.10;54.30
3630;DHT22;1831;53.626;10.012;2022-08-18T13:55:26;31.90;53.50
3630;DHT22;1831;53.626;10.012;2022-08-18T13:57:55;32.10;55.40
3630;DHT22;1831;53.626;10.012;2022-08-18T14:00:22;32.30;53.20
3630;DHT22;1831;53.626;10.012;2022-08-18T14:02:50;32.60;53.10
3630;DHT22;1831;53.626;10.012;2022-08-18T14:05:20;32.90;52.20
3630;DHT22;1831;53.626;10.012;2022-08-18T14:07:47;33.20;52.30
3630;DHT22;1831;53.626;10.012;2022-08-18T14:10:14;34.20;51.90
3630;DHT22;1831;53.626;10.012;2022-08-18T14:12:42;35.20;48.30
3630;DHT22;1831;53.626;10.012;2022-08-18T14:15:13;35.70;46.90
3630;DHT22;1831;53.626;10.012;2022-08-18T14:17:41;35.80;46.80
3630;DHT22;1831;53.626;10.012;2022-08-18T14:20:09;35.70;46.20
3630;DHT22;1831;53.626;10.012;2022-08-18T14:22:57;35.60;46.50
3630;DHT22;1831;53.626;10.012;2022-08-18T14:25:42;36.00;46.70
3630;DHT22;1831;53.626;10.012;2022-08-18T14:28:27;36.40;45.80
3630;DHT22;1831;53.626;10.012;2022-08-18T14:30:56;37.20;44.20
3630;DHT22;1831;53.626;10.012;2022-08-18T14:33:25;36.80;44.10
3630;DHT22;1831;53.626;10.012;2022-08-18T14:35:53;36.50;44.60
3630;DHT22;1831;53.626;10.012;2022-08-18T14:38:20;36.40;45.30
3630;DHT22;1831;53.626;10.012;2022-08-18T14:40:48;37.00;45.30
3630;DHT22;1831;53.626;10.012;2022-08-18T14:43:17;37.50;43.50
3630;DHT22;1831;53.626;10.012;2022-08-18T14:45:47;38.50;42.50
3630;DHT22;1831;53.626;10.012;2022-08-18T14:48:17;39.00;40.70
3630;DHT22;1831;53.626;10.012;2022-08-18T14:50:48;39.10;40.20
3630;DHT22;1831;53.626;10.012;2022-08-18T14:53:16;38.90;41.00
3630;DHT22;1831;53.626;10.012;2022-08-18T14:55:44;38.60;41.50
3630;DHT22;1831;53.626;10.012;2022-08-18T14:58:11;38.40;41.40
3630;DHT22;1831;53.626;10.012;2022-08-18T15:00:38;38.20;42.30
3630;DHT22;1831;53.626;10.012;2022-08-18T15:03:05;38.40;41.90
3630;DHT22;1831;53.626;10.012;2022-08-18T15:05:33;38.80;41.10
3630;DHT22;1831;53.626;10.012;2022-08-18T15:08:02;39.30;39.60
3630;DHT22;1831;53.626;10.012;2022-08-18T15:10:30;39.50;38.70
3630;DHT22;1831;53.626;10.012;2022-08-18T15:12:59;39.00;39.60
3630;DHT22;1831;53.626;10.012;2022-08-18T15:15:27;38.10;40.80
3630;DHT22;1831;53.626;10.012;2022-08-18T15:17:54;37.40;42.30
3630;DHT22;1831;53.626;10.012;2022-08-18T15:20:24;36.80;44.00
3630;DHT22;1831;53.626;10.012;2022-08-18T15:22:52;36.10;44.20
3630;DHT22;1831;53.626;10.012;2022-08-18T15:25:37;35.30;45.60
3630;DHT22;1831;53.626;10.012;2022-08-18T15:28:12;34.70;47.20
3630;DHT22;1831;53.626;10.012;2022-08-18T15:30:39;34.40;47.50
3630;DHT22;1831;53.626;10.012;2022-08-18T15:33:07;34.20;48.40
3630;DHT22;1831;53.626;10.012;2022-08-18T15:35:35;34.10;48.90
3630;DHT22;1831;53.626;10.012;2022-08-18T15:38:03;34.00;49.30
3630;DHT22;1831;53.626;10.012;2022-08-18T15:40:31;33.80;49.90
3630;DHT22;1831;53.626;10.012;2022-08-18T15:42:59;33.60;49.80
3630;DHT22;1831;53.626;10.012;2022-08-18T15:45:29;33.50;50.00
3630;DHT22;1831;53.626;10.012;2022-08-18T15:47:58;33.20;50.00
3630;DHT22;1831;53.626;10.012;2022-08-18T15:50:25;32.80;50.40
3630;DHT22;1831;53.626;10.012;2022-08-18T15:52:53;32.50;51.40
3630;DHT22;1831;53.626;10.012;2022-08-18T15:55:25;32.50;51.90
3630;DHT22;1831;53.626;10.012;2022-08-18T15:57:53;32.50;52.20
3630;DHT22;1831;53.626;10.012;2022-08-18T16:00:20;32.30;52.70
3630;DHT22;1831;53.626;10.012;2022-08-18T16:02:49;32.20;53.00
3630;DHT22;1831;53.626;10.012;2022-08-18T16:05:17;32.10;53.20
3630;DHT22;1831;53.626;10.012;2022-08-18T16:07:46;32.10;53.50
3630;DHT22;1831;53.626;10.012;2022-08-18T16:10:14;32.20;53.10
3630;DHT22;1831;53.626;10.012;2022-08-18T16:12:43;32.30;53.50
3630;DHT22;1831;53.626;10.012;2022-08-18T16:15:11;32.30;52.70
3630;DHT22;1831;53.626;10.012;2022-08-18T16:17:38;32.30;52.20
3630;DHT22;1831;53.626;10.012;2022-08-18T16:20:06;32.20;52.20
3630;DHT22;1831;53.626;10.012;2022-08-18T16:22:33;32.20;52.70
3630;DHT22;1831;53.626;10.012;2022-08-18T16:25:02;32.10;52.80
3630;DHT22;1831;53.626;10.012;2022-08-18T16:27:31;31.70;53.20
3630;DHT22;1831;53.626;10.012;2022-08-18T16:30:00;31.60;53.30